createdAt,value
2023-02-22T00:01:51.135Z,-2.60
2023-02-22T00:04:21.574Z,-2.60
2023-02-22T00:06:50.901Z,-2.60
2023-02-22T00:09:21.515Z,-2.60
2023-02-22T00:11:50.203Z,-2.50
2023-02-22T00:14:20.640Z,-2.60
2023-02-22T00:16:48.938Z,-2.50
2023-02-22T00:19:17.216Z,-2.50
2023-02-22T00:21:47.531Z,-2.50
2023-02-22T00:24:24.127Z,-2.50
2023-02-22T00:26:52.862Z,-2.50
2023-02-22T00:29:21.132Z,-2.50
2023-02-22T00:31:49.347Z,-2.50
2023-02-22T00:34:17.671Z,-2.50
2023-02-22T00:36:51.017Z,-2.50
2023-02-22T00:39:19.122Z,-2.60
2023-02-22T00:41:47.384Z,-2.50
2023-02-22T00:44:15.787Z,-2.50
2023-02-22T00:46:43.875Z,-2.50
2023-02-22T00:49:12.033Z,-2.50
2023-02-22T00:51:40.542Z,-2.50
2023-02-22T00:54:10.801Z,-2.50
2023-02-22T00:56:39.177Z,-2.50
2023-02-22T00:59:07.517Z,-2.50
2023-02-22T01:01:35.698Z,-2.50
2023-02-22T01:04:06.908Z,-2.60
2023-02-22T01:06:35.386Z,-2.50
2023-02-22T01:09:03.864Z,-2.60
2023-02-22T01:11:33.600Z,-2.60
2023-02-22T01:14:01.908Z,-2.60
2023-02-22T01:16:30.088Z,-2.50
2023-02-22T01:18:58.308Z,-2.50
2023-02-22T01:21:26.549Z,-2.50
2023-02-22T01:23:55.262Z,-2.50
2023-02-22T01:26:23.460Z,-2.50
2023-02-22T01:28:52.988Z,-2.50
2023-02-22T01:31:21.367Z,-2.50
2023-02-22T01:33:51.048Z,-2.50
2023-02-22T01:36:19.233Z,-2.50
2023-02-22T01:38:47.456Z,-2.50
2023-02-22T01:41:18.557Z,-2.50
2023-02-22T01:43:47.029Z,-2.50
2023-02-22T01:46:23.613Z,-2.60
2023-02-22T01:48:53.207Z,-2.50
2023-02-22T01:51:22.651Z,-2.50
2023-02-22T01:53:51.507Z,-2.50
2023-02-22T01:56:20.316Z,-2.60
2023-02-22T01:58:50.360Z,-2.60
2023-02-22T02:01:19.741Z,-2.60
2023-02-22T02:03:50.532Z,-2.60
2023-02-22T02:06:19.731Z,-2.50
2023-02-22T02:08:54.176Z,-2.50
2023-02-22T02:11:25.604Z,-2.50
2023-02-22T02:13:55.358Z,-2.50
2023-02-22T02:16:26.993Z,-2.50
2023-02-22T02:18:56.796Z,-2.50
2023-02-22T02:21:43.924Z,-2.50
2023-02-22T02:24:39.832Z,-2.50
2023-02-22T02:27:13.001Z,-2.50
2023-02-22T02:29:51.833Z,-2.50
2023-02-22T02:32:33.641Z,-2.50
2023-02-22T02:35:05.943Z,-2.50
2023-02-22T02:37:38.370Z,-2.60
2023-02-22T02:40:12.645Z,-2.60
2023-02-22T02:42:45.971Z,-2.50
2023-02-22T02:45:17.449Z,-2.60
2023-02-22T02:47:49.991Z,-2.50
2023-02-22T02:50:19.963Z,-2.60
2023-02-22T02:52:49.608Z,-2.60
2023-02-22T02:55:19.135Z,-2.60
2023-02-22T02:57:47.279Z,-2.60
2023-02-22T03:00:22.805Z,-2.60
2023-02-22T03:02:59.767Z,-2.60
2023-02-22T03:05:36.241Z,-2.60
2023-02-22T03:08:09.095Z,-2.60
2023-02-22T03:10:44.873Z,-2.60
2023-02-22T03:13:17.677Z,-2.60
2023-02-22T03:15:47.873Z,-2.60
2023-02-22T03:18:23.040Z,-2.60
2023-02-22T03:20:54.326Z,-2.60
2023-02-22T03:23:26.119Z,-2.60
2023-02-22T03:25:56.836Z,-2.60
2023-02-22T03:28:27.543Z,-2.60
2023-02-22T03:30:58.381Z,-2.50
2023-02-22T03:33:33.750Z,-2.50
2023-02-22T03:36:04.012Z,-2.50
2023-02-22T03:38:33.912Z,-2.50
2023-02-22T03:41:03.888Z,-2.50
2023-02-22T03:43:34.179Z,-2.50
2023-02-22T03:46:03.928Z,-2.50
2023-02-22T03:48:37.485Z,-2.50
2023-02-22T03:51:05.877Z,-2.50
2023-02-22T03:53:37.243Z,-2.50
2023-02-22T03:56:08.748Z,-2.60
2023-02-22T03:58:39.979Z,-2.60
2023-02-22T04:01:08.255Z,-2.60
2023-02-22T04:03:45.426Z,-2.50
2023-02-22T04:06:13.791Z,-2.50
2023-02-22T04:08:44.173Z,-2.50
2023-02-22T04:11:12.374Z,-2.50
2023-02-22T04:13:40.713Z,-2.50
2023-02-22T04:16:11.749Z,-2.50
2023-02-22T04:18:41.335Z,-2.60
2023-02-22T04:21:10.432Z,-2.50
2023-02-22T04:23:41.495Z,-2.50
2023-02-22T04:26:09.668Z,-2.50
2023-02-22T04:28:40.522Z,-2.40
2023-02-22T04:31:08.853Z,-2.40
2023-02-22T04:33:37.200Z,-2.40
2023-02-22T04:36:07.776Z,-2.40
2023-02-22T04:38:35.935Z,-2.40
2023-02-22T04:41:04.337Z,-2.40
2023-02-22T04:43:32.511Z,-2.40
2023-02-22T04:46:00.669Z,-2.40
2023-02-22T04:48:29.080Z,-2.40
2023-02-22T04:50:57.224Z,-2.40
2023-02-22T04:53:26.784Z,-2.40
2023-02-22T04:55:57.802Z,-2.40
2023-02-22T04:58:25.900Z,-2.40
2023-02-22T05:00:54.212Z,-2.40
2023-02-22T05:03:22.479Z,-2.50
2023-02-22T05:05:52.650Z,-2.40
2023-02-22T05:08:20.987Z,-2.40
2023-02-22T05:10:50.676Z,-2.40
2023-02-22T05:13:18.859Z,-2.40
2023-02-22T05:15:48.002Z,-2.40
2023-02-22T05:18:16.105Z,-2.40
2023-02-22T05:20:44.368Z,-2.50
2023-02-22T05:23:12.823Z,-2.50
2023-02-22T05:25:40.944Z,-2.60
2023-02-22T05:28:13.090Z,-2.60
2023-02-22T05:30:41.545Z,-2.50
2023-02-22T05:33:10.266Z,-2.60
2023-02-22T05:35:38.737Z,-2.60
2023-02-22T05:38:07.325Z,-2.60
2023-02-22T05:40:35.549Z,-2.60
2023-02-22T05:43:03.814Z,-2.70
2023-02-22T05:45:33.447Z,-2.60
2023-02-22T05:48:01.884Z,-2.60
2023-02-22T05:50:30.464Z,-2.60
2023-02-22T05:52:58.597Z,-2.60
2023-02-22T05:55:29.243Z,-2.60
2023-02-22T05:57:57.565Z,-2.60
2023-02-22T06:00:27.008Z,-2.60
2023-02-22T06:02:57.163Z,-2.60
2023-02-22T06:05:25.650Z,-2.60
2023-02-22T06:07:54.246Z,-2.70
2023-02-22T06:10:22.560Z,-2.70
2023-02-22T06:12:54.157Z,-2.70
2023-02-22T06:15:23.370Z,-2.70
2023-02-22T06:17:51.624Z,-2.60
2023-02-22T06:20:22.833Z,-2.50
2023-02-22T06:22:51.514Z,-2.40
2023-02-22T06:25:24.281Z,-2.40
2023-02-22T06:27:52.659Z,-2.40
2023-02-22T06:30:21.939Z,-2.40
2023-02-22T06:32:52.791Z,-2.50
2023-02-22T06:35:25.300Z,-2.50
2023-02-22T06:37:53.470Z,-2.50
2023-02-22T06:40:21.822Z,-2.50
2023-02-22T06:42:50.355Z,-2.50
2023-02-22T06:45:19.401Z,-2.50
2023-02-22T06:47:47.856Z,-2.50
2023-02-22T06:50:23.139Z,-2.50
2023-02-22T06:52:52.913Z,-2.50
2023-02-22T06:55:22.086Z,-2.40
2023-02-22T06:57:50.380Z,-2.40
2023-02-22T07:00:19.276Z,-2.50
2023-02-22T07:02:48.594Z,-2.40
2023-02-22T07:05:19.853Z,-2.40
2023-02-22T07:07:48.160Z,-2.40
2023-02-22T07:10:22.001Z,-2.30
2023-02-22T07:12:52.590Z,-2.30
2023-02-22T07:15:23.691Z,-2.20
2023-02-22T07:17:52.278Z,-2.20
2023-02-22T07:20:21.746Z,-2.20
2023-02-22T07:22:51.486Z,-2.10
2023-02-22T07:25:21.304Z,-2.10
2023-02-22T07:27:49.505Z,-2.10
2023-02-22T07:30:19.623Z,-2.10
2023-02-22T07:32:49.486Z,-2.10
2023-02-22T07:35:18.300Z,-2.10
2023-02-22T07:37:48.267Z,-2.10
2023-02-22T07:40:16.913Z,-2.00
2023-02-22T07:42:57.207Z,-2.00
2023-02-22T07:45:26.478Z,-2.00
2023-02-22T07:47:54.939Z,-2.00
2023-02-22T07:50:24.639Z,-2.00
2023-02-22T07:52:53.651Z,-2.00
2023-02-22T07:55:22.711Z,-1.90
2023-02-22T07:57:51.691Z,-2.00
2023-02-22T08:00:25.181Z,-2.00
2023-02-22T08:02:53.792Z,-2.00
2023-02-22T08:05:23.434Z,-2.10
2023-02-22T08:07:52.071Z,-2.10
2023-02-22T08:10:21.079Z,-2.00
2023-02-22T08:12:49.638Z,-2.00
2023-02-22T08:15:22.196Z,-2.00
2023-02-22T08:17:51.992Z,-2.00
2023-02-22T08:20:20.704Z,-1.90
2023-02-22T08:22:49.371Z,-1.90
2023-02-22T08:25:18.226Z,-1.90
2023-02-22T08:27:46.401Z,-1.90
2023-02-22T08:30:16.540Z,-1.90
2023-02-22T08:32:44.794Z,-1.90
2023-02-22T08:35:15.272Z,-1.80
2023-02-22T08:37:44.146Z,-1.90
2023-02-22T08:40:15.103Z,-1.90
2023-02-22T08:42:43.408Z,-1.80
2023-02-22T08:45:12.289Z,-1.80
2023-02-22T08:47:40.494Z,-1.80
2023-02-22T08:50:09.181Z,-1.70
2023-02-22T08:52:38.855Z,-1.60
2023-02-22T08:55:07.574Z,-1.60
2023-02-22T08:57:35.688Z,-1.60
2023-02-22T09:00:04.913Z,-1.70
2023-02-22T09:02:33.059Z,-1.80
2023-02-22T09:05:01.231Z,-1.90
2023-02-22T09:07:29.500Z,-1.90
2023-02-22T09:09:59.011Z,-1.90
2023-02-22T09:12:27.159Z,-1.80
2023-02-22T09:14:55.317Z,-1.80
2023-02-22T09:17:23.497Z,-1.60
2023-02-22T09:19:51.817Z,-1.40
2023-02-22T09:22:20.035Z,-1.30
2023-02-22T09:24:48.253Z,-1.40
2023-02-22T09:27:21.827Z,-1.50
2023-02-22T09:29:50.662Z,-1.50
2023-02-22T09:32:19.154Z,-1.70
2023-02-22T09:34:49.091Z,-1.60
2023-02-22T09:37:18.826Z,-1.40
2023-02-22T09:39:47.003Z,-1.20
2023-02-22T09:42:18.746Z,-1.10
2023-02-22T09:44:53.722Z,-1.10
2023-02-22T09:47:32.623Z,-1.00
2023-02-22T09:50:04.006Z,-0.80
2023-02-22T09:52:33.732Z,-1.00
2023-02-22T09:55:08.457Z,-1.10
2023-02-22T09:57:40.711Z,-1.00
2023-02-22T10:00:16.917Z,-0.90
2023-02-22T10:02:47.800Z,-0.60
2023-02-22T10:05:21.574Z,-0.40
2023-02-22T10:07:54.727Z,-0.50
2023-02-22T10:10:25.763Z,-0.60
2023-02-22T10:12:59.584Z,-0.80
2023-02-22T10:15:35.754Z,-1.00
2023-02-22T10:18:21.032Z,-0.80
2023-02-22T10:20:55.461Z,-1.10
2023-02-22T10:23:27.058Z,-1.00
2023-02-22T10:26:00.894Z,-1.10
2023-02-22T10:28:34.606Z,-1.10
2023-02-22T10:31:07.163Z,-1.10
2023-02-22T10:33:38.266Z,-1.00
2023-02-22T10:36:07.865Z,-1.00
2023-02-22T10:38:36.737Z,-1.10
2023-02-22T10:41:14.805Z,-1.10
2023-02-22T10:43:44.531Z,-1.10
2023-02-22T10:46:16.740Z,-1.10
2023-02-22T10:48:47.287Z,-1.10
2023-02-22T10:51:15.435Z,-1.00
2023-02-22T10:53:43.714Z,-0.90
2023-02-22T10:56:17.701Z,-1.00
2023-02-22T10:58:48.379Z,-1.10
2023-02-22T11:01:22.030Z,-0.90
2023-02-22T11:03:58.069Z,-0.70
2023-02-22T11:06:26.320Z,-0.50
2023-02-22T11:09:04.987Z,-0.50
2023-02-22T11:11:34.315Z,-0.50
2023-02-22T11:14:02.691Z,-0.70
2023-02-22T11:16:34.523Z,-1.00
2023-02-22T11:19:03.181Z,-1.10
2023-02-22T11:21:31.898Z,-1.10
2023-02-22T11:24:04.174Z,-1.10
2023-02-22T11:26:38.168Z,-1.20
2023-02-22T11:29:12.217Z,-1.30
2023-02-22T11:31:45.816Z,-1.40
2023-02-22T11:34:30.473Z,-1.40
2023-02-22T11:36:59.027Z,-1.20
2023-02-22T11:39:28.580Z,-1.30
2023-02-22T11:41:57.208Z,-1.50
2023-02-22T11:44:29.193Z,-1.50
2023-02-22T11:47:01.585Z,-1.40
2023-02-22T11:49:34.563Z,-1.30
2023-02-22T11:52:18.022Z,-1.30
2023-02-22T11:54:53.870Z,-1.20
2023-02-22T11:57:26.843Z,-1.20
2023-02-22T12:00:07.281Z,-1.30
2023-02-22T12:02:56.440Z,-1.20
2023-02-22T12:05:37.250Z,-1.00
2023-02-22T12:08:19.338Z,-0.80
2023-02-22T12:10:56.605Z,-0.90
2023-02-22T12:13:29.878Z,-0.80
2023-02-22T12:16:04.237Z,-0.90
2023-02-22T12:18:37.794Z,-0.90
2023-02-22T12:21:08.656Z,-0.80
2023-02-22T12:23:40.900Z,-0.80
2023-02-22T12:26:12.455Z,-0.70
2023-02-22T12:28:43.651Z,-0.70
2023-02-22T12:31:17.358Z,-0.60
2023-02-22T12:33:51.194Z,-0.50
2023-02-22T12:36:22.220Z,-0.50
2023-02-22T12:38:53.927Z,-0.70
2023-02-22T12:41:27.106Z,-0.70
2023-02-22T12:43:59.155Z,-0.70
2023-02-22T12:46:30.346Z,-0.50
2023-02-22T12:49:02.340Z,-0.50
2023-02-22T12:51:35.142Z,-0.40
2023-02-22T12:54:06.143Z,-0.40
2023-02-22T12:56:37.764Z,-0.60
2023-02-22T12:59:10.503Z,-0.40
2023-02-22T13:01:40.476Z,-0.50
2023-02-22T13:04:20.040Z,-0.30
2023-02-22T13:07:01.115Z,-0.20
2023-02-22T13:09:44.092Z,-0.40
2023-02-22T13:12:17.293Z,-0.50
2023-02-22T13:14:52.004Z,-0.30
2023-02-22T13:17:23.156Z,-0.30
2023-02-22T13:19:56.716Z,-0.30
2023-02-22T13:22:28.163Z,-0.30
2023-02-22T13:25:04.781Z,-0.50
2023-02-22T13:27:37.780Z,-0.50
2023-02-22T13:30:07.243Z,-0.40
2023-02-22T13:32:41.583Z,-0.50
2023-02-22T13:35:21.392Z,-0.60
2023-02-22T13:37:57.203Z,-0.90
2023-02-22T13:40:43.817Z,-0.80
2023-02-22T13:43:35.810Z,-0.60
2023-02-22T13:46:13.597Z,-0.80
2023-02-22T13:48:53.133Z,-0.60
2023-02-22T13:51:36.478Z,-0.50
2023-02-22T13:54:08.908Z,-0.50
2023-02-22T13:56:37.331Z,-0.40
2023-02-22T13:59:06.126Z,-0.50
2023-02-22T14:01:39.272Z,-0.60
2023-02-22T14:04:22.408Z,-0.30
2023-02-22T14:06:51.381Z,-0.20
2023-02-22T14:09:45.544Z,-0.20
2023-02-22T14:12:28.627Z,-0.30
2023-02-22T14:15:31.032Z,-0.30
2023-02-22T14:18:00.167Z,-0.50
2023-02-22T14:20:32.621Z,-0.50
2023-02-22T14:23:15.740Z,-0.40
2023-02-22T14:25:45.744Z,-0.50
2023-02-22T14:28:31.063Z,-0.90
2023-02-22T14:31:06.808Z,-1.10
2023-02-22T14:33:58.356Z,-1.00
2023-02-22T14:36:28.403Z,-1.00
2023-02-22T14:38:59.426Z,-1.10
2023-02-22T14:41:31.446Z,-1.30
2023-02-22T14:43:59.921Z,-1.30
2023-02-22T14:46:29.144Z,-1.30
2023-02-22T14:49:00.933Z,-1.40
2023-02-22T14:51:30.926Z,-1.40
2023-02-22T14:54:03.796Z,-1.50
2023-02-22T14:56:41.276Z,-1.70
2023-02-22T14:59:16.459Z,-1.70
2023-02-22T15:01:55.659Z,-1.80
2023-02-22T15:04:32.365Z,-1.80
2023-02-22T15:07:01.732Z,-2.00
2023-02-22T15:09:33.762Z,-2.00
2023-02-22T15:12:16.434Z,-2.10
2023-02-22T15:14:47.802Z,-2.10
2023-02-22T15:17:19.755Z,-2.10
2023-02-22T15:19:49.251Z,-2.30
2023-02-22T15:22:21.488Z,-2.30
2023-02-22T15:24:58.998Z,-2.20
2023-02-22T15:27:29.411Z,-2.20
2023-02-22T15:30:04.969Z,-2.30
2023-02-22T15:32:36.347Z,-2.30
2023-02-22T15:35:23.706Z,-2.30
2023-02-22T15:37:59.921Z,-2.30
2023-02-22T15:40:33.513Z,-2.30
2023-02-22T15:43:04.011Z,-2.20
2023-02-22T15:45:33.111Z,-2.30
2023-02-22T15:48:02.366Z,-2.30
2023-02-22T15:50:31.208Z,-2.30
2023-02-22T15:53:00.215Z,-2.30
2023-02-22T15:55:33.871Z,-2.20
2023-02-22T15:58:08.819Z,-2.30
2023-02-22T16:00:38.615Z,-2.30
2023-02-22T16:03:09.428Z,-2.30
2023-02-22T16:05:40.452Z,-2.30
2023-02-22T16:08:15.762Z,-2.30
2023-02-22T16:10:47.541Z,-2.30
2023-02-22T16:13:31.507Z,-2.40
2023-02-22T16:16:02.058Z,-2.40
2023-02-22T16:18:33.913Z,-2.40
2023-02-22T16:21:04.007Z,-2.40
2023-02-22T16:23:35.639Z,-2.40
2023-02-22T16:26:08.396Z,-2.40
2023-02-22T16:28:38.129Z,-2.40
2023-02-22T16:31:06.422Z,-2.40
2023-02-22T16:33:34.866Z,-2.50
2023-02-22T16:36:08.229Z,-2.40
2023-02-22T16:38:38.598Z,-2.50
2023-02-22T16:41:07.737Z,-2.50
2023-02-22T16:43:37.457Z,-2.40
2023-02-22T16:46:07.229Z,-2.50
2023-02-22T16:48:38.349Z,-2.30
2023-02-22T16:51:15.103Z,-2.40
2023-02-22T16:53:43.334Z,-2.40
2023-02-22T16:56:13.024Z,-2.40
2023-02-22T16:58:43.584Z,-2.40
2023-02-22T17:01:12.910Z,-2.40
2023-02-22T17:03:41.155Z,-2.40
2023-02-22T17:06:11.204Z,-2.40
2023-02-22T17:08:39.487Z,-2.40
2023-02-22T17:11:08.453Z,-2.40
2023-02-22T17:13:36.835Z,-2.40
2023-02-22T17:16:06.898Z,-2.50
2023-02-22T17:18:35.867Z,-2.50
2023-02-22T17:21:04.151Z,-2.50
2023-02-22T17:23:32.538Z,-2.50
2023-02-22T17:26:02.431Z,-2.60
2023-02-22T17:28:31.282Z,-2.60
2023-02-22T17:31:01.852Z,-2.60
2023-02-22T17:33:33.171Z,-2.60
2023-02-22T17:36:03.058Z,-2.60
2023-02-22T17:38:34.911Z,-2.60
2023-02-22T17:41:03.876Z,-2.60
2023-02-22T17:43:32.066Z,-2.60
2023-02-22T17:46:00.452Z,-2.60
2023-02-22T17:48:28.794Z,-2.60
2023-02-22T17:50:58.498Z,-2.60
2023-02-22T17:53:26.647Z,-2.60
2023-02-22T17:55:54.910Z,-2.50
2023-02-22T17:58:25.448Z,-2.50
2023-02-22T18:00:59.398Z,-2.50
2023-02-22T18:03:27.756Z,-2.50
2023-02-22T18:05:57.777Z,-2.50
2023-02-22T18:08:27.964Z,-2.60
2023-02-22T18:10:57.457Z,-2.60
2023-02-22T18:13:29.212Z,-2.60
2023-02-22T18:16:00.175Z,-2.60
2023-02-22T18:18:28.691Z,-2.60
2023-02-22T18:21:00.162Z,-2.60
2023-02-22T18:23:32.927Z,-2.60
2023-02-22T18:26:11.211Z,-2.60
2023-02-22T18:28:50.097Z,-2.60
2023-02-22T18:31:19.780Z,-2.70
2023-02-22T18:33:49.266Z,-2.70
2023-02-22T18:36:19.828Z,-2.70
2023-02-22T18:38:50.057Z,-2.70
2023-02-22T18:41:19.612Z,-2.70
2023-02-22T18:43:47.869Z,-2.70
2023-02-22T18:46:18.305Z,-2.70
2023-02-22T18:48:46.870Z,-2.70
2023-02-22T18:51:15.757Z,-2.70
2023-02-22T18:53:47.512Z,-2.70
2023-02-22T18:56:22.033Z,-2.70
2023-02-22T18:58:53.957Z,-2.70
2023-02-22T19:01:22.327Z,-2.70
2023-02-22T19:03:51.996Z,-2.70
2023-02-22T19:06:22.712Z,-2.70
2023-02-22T19:08:51.841Z,-2.70
2023-02-22T19:11:25.054Z,-2.70
2023-02-22T19:13:54.075Z,-2.60
2023-02-22T19:16:23.319Z,-2.60
2023-02-22T19:18:52.774Z,-2.60
2023-02-22T19:21:21.894Z,-2.60
2023-02-22T19:23:50.541Z,-2.60
2023-02-22T19:26:20.149Z,-2.60
2023-02-22T19:28:59.939Z,-2.60
2023-02-22T19:31:31.248Z,-2.60
2023-02-22T19:34:01.211Z,-2.60
2023-02-22T19:36:32.275Z,-2.60
2023-02-22T19:39:02.259Z,-2.60
2023-02-22T19:41:30.969Z,-2.70
2023-02-22T19:44:03.257Z,-2.60
2023-02-22T19:46:31.656Z,-2.60
2023-02-22T19:48:59.827Z,-2.60
2023-02-22T19:51:29.039Z,-2.60
2023-02-22T19:53:58.904Z,-2.60
2023-02-22T19:56:28.376Z,-2.70
2023-02-22T19:58:57.731Z,-2.70
2023-02-22T20:01:29.232Z,-2.60
2023-02-22T20:04:01.166Z,-2.60
2023-02-22T20:06:31.375Z,-2.70
2023-02-22T20:08:59.554Z,-2.70
2023-02-22T20:11:28.008Z,-2.70
2023-02-22T20:13:56.888Z,-2.60
2023-02-22T20:16:25.537Z,-2.70
2023-02-22T20:18:56.281Z,-2.70
2023-02-22T20:21:27.323Z,-2.70
2023-02-22T20:23:57.354Z,-2.70
2023-02-22T20:26:25.572Z,-2.70
2023-02-22T20:28:54.054Z,-2.70
2023-02-22T20:31:22.593Z,-2.70
2023-02-22T20:33:54.857Z,-2.70
2023-02-22T20:36:24.994Z,-2.70
2023-02-22T20:38:54.055Z,-2.70
2023-02-22T20:41:23.574Z,-2.70
2023-02-22T20:43:52.285Z,-2.70
2023-02-22T20:46:20.636Z,-2.70
2023-02-22T20:48:48.881Z,-2.70
2023-02-22T20:51:20.561Z,-2.60
2023-02-22T20:53:50.354Z,-2.60
2023-02-22T20:56:19.820Z,-2.60
2023-02-22T20:58:48.511Z,-2.70
2023-02-22T21:01:19.590Z,-2.70
2023-02-22T21:03:48.275Z,-2.70
2023-02-22T21:06:17.014Z,-2.70
2023-02-22T21:08:45.780Z,-2.70
2023-02-22T21:11:16.854Z,-2.60
2023-02-22T21:13:48.101Z,-2.60
2023-02-22T21:16:18.171Z,-2.70
2023-02-22T21:18:46.464Z,-2.60
2023-02-22T21:21:15.171Z,-2.70
2023-02-22T21:23:43.743Z,-2.70
2023-02-22T21:26:15.721Z,-2.70
2023-02-22T21:28:51.260Z,-2.60
2023-02-22T21:31:20.283Z,-2.70
2023-02-22T21:33:53.182Z,-2.60
2023-02-22T21:36:25.480Z,-2.70
2023-02-22T21:38:55.172Z,-2.60
2023-02-22T21:41:27.635Z,-2.60
2023-02-22T21:43:58.290Z,-2.60
2023-02-22T21:46:27.163Z,-2.60
2023-02-22T21:48:58.859Z,-2.60
2023-02-22T21:51:31.637Z,-2.60
2023-02-22T21:54:01.230Z,-2.60
2023-02-22T21:56:29.992Z,-2.60
2023-02-22T21:59:00.378Z,-2.60
2023-02-22T22:01:29.695Z,-2.60
2023-02-22T22:03:59.856Z,-2.60
2023-02-22T22:06:28.865Z,-2.60
2023-02-22T22:08:57.415Z,-2.60
2023-02-22T22:11:27.633Z,-2.60
2023-02-22T22:13:57.746Z,-2.60
2023-02-22T22:16:30.084Z,-2.60
2023-02-22T22:18:58.684Z,-2.50
2023-02-22T22:21:29.015Z,-2.50
2023-02-22T22:23:57.575Z,-2.50
2023-02-22T22:26:27.462Z,-2.50
2023-02-22T22:28:57.550Z,-2.60
2023-02-22T22:31:28.886Z,-2.60
2023-02-22T22:33:58.888Z,-2.50
2023-02-22T22:36:27.939Z,-2.60
2023-02-22T22:38:57.737Z,-2.60
2023-02-22T22:41:28.179Z,-2.60
2023-02-22T22:43:56.832Z,-2.60
2023-02-22T22:46:25.312Z,-2.60
2023-02-22T22:48:53.646Z,-2.60
2023-02-22T22:51:23.407Z,-2.60
2023-02-22T22:53:52.184Z,-2.60
2023-02-22T22:56:26.695Z,-2.50
2023-02-22T22:58:56.051Z,-2.50
2023-02-22T23:01:27.351Z,-2.50
2023-02-22T23:03:59.289Z,-2.50
2023-02-22T23:06:33.208Z,-2.50
2023-02-22T23:09:10.269Z,-2.40
2023-02-22T23:11:39.490Z,-2.40
2023-02-22T23:14:07.818Z,-2.40
2023-02-22T23:16:36.609Z,-2.40
2023-02-22T23:19:08.011Z,-2.40
2023-02-22T23:21:38.277Z,-2.40
2023-02-22T23:24:07.493Z,-2.40
2023-02-22T23:26:36.135Z,-2.40
2023-02-22T23:29:08.862Z,-2.40
2023-02-22T23:31:39.964Z,-2.40
2023-02-22T23:34:11.237Z,-2.40
2023-02-22T23:36:44.413Z,-2.40
2023-02-22T23:39:13.128Z,-2.30
2023-02-22T23:41:41.459Z,-2.30
2023-02-22T23:44:13.526Z,-2.30
2023-02-22T23:46:41.819Z,-2.30
2023-02-22T23:49:10.591Z,-2.30
2023-02-22T23:51:40.278Z,-2.30
2023-02-22T23:54:09.321Z,-2.30
2023-02-22T23:56:39.996Z,-2.30
2023-02-22T23:59:12.685Z,-2.30
